Terminal Aerodrome Forecast
Issued by NWS

Home | Current Version | Previous Version | Text Only | Print | Product List | Glossary On
Versions: 1 2 3 4 5 6 7 8 9 10 11 12 13 14 15 16 17 18 19 20 21 22 23 24 25
000
FTUS41 KBOX 231128
TAFFMH
TAF
KFMH 231128Z 2312/2412 25012G22KT P6SM BKN060
     FM231600 24012G20KT P6SM SCT070
     FM232000 23009KT P6SM FEW200
     FM240000 22006KT P6SM BKN090
     FM240500 18006KT P6SM BKN130
     FM240900 15011KT P6SM -RA OVC090=

USA.gov is the U.S. government's official web portal to all federal, state and local government web resources and services.